Terminal Aerodrome Forecast
Issued by NWS Flagstaff, AZ

Home | Current Version | Previous Version | Text Only | Print | Product List | Glossary On
Versions: 1 2 3 4 5 6 7 8 9 10 11 12 13 14 15 16 17 18 19 20 21 22 23
000
FTUS45 KFGZ 031815 AAA
TAFINW
TAF AMD
KINW 031815Z 0318/0418 VRB05KT P6SM BKN090
      TEMPO 0318/0321 VRB25G40KT -TSRA BKN090CB
     FM032100 22011G20KT P6SM SCT080 BKN100
     FM040230 24011KT P6SM BKN100=

USA.gov is the U.S. government's official web portal to all federal, state and local government web resources and services.